sensor_id;sensor_type;location;lat;lon;timestamp;pressure;altitude;pressure_sealevel;temperature;humidity
2761;BME280;15420;48.636;9.798;2023-02-23T00:01:31;96334.56;;;8.94;92.05
2761;BME280;15420;48.636;9.798;2023-02-23T00:04:00;96337.94;;;8.92;90.87
2761;BME280;15420;48.636;9.798;2023-02-23T00:06:28;96337.03;;;8.90;91.40
2761;BME280;15420;48.636;9.798;2023-02-23T00:08:57;96338.78;;;8.91;91.74
2761;BME280;15420;48.636;9.798;2023-02-23T00:11:26;96340.47;;;8.90;92.36
2761;BME280;15420;48.636;9.798;2023-02-23T00:13:56;96337.03;;;8.90;91.82
2761;BME280;15420;48.636;9.798;2023-02-23T00:16:25;96339.59;;;8.88;92.32
2761;BME280;15420;48.636;9.798;2023-02-23T00:18:53;96336.19;;;8.89;93.00
2761;BME280;15420;48.636;9.798;2023-02-23T00:21:23;96337.91;;;8.90;92.35
2761;BME280;15420;48.636;9.798;2023-02-23T00:24:01;96340.50;;;8.92;93.20
2761;BME280;15420;48.636;9.798;2023-02-23T00:26:32;96334.50;;;8.91;93.18
2761;BME280;15420;48.636;9.798;2023-02-23T00:29:02;96331.09;;;8.92;93.07
2761;BME280;15420;48.636;9.798;2023-02-23T00:31:29;96332.81;;;8.92;93.16
2761;BME280;15420;48.636;9.798;2023-02-23T00:34:00;96329.41;;;8.93;92.99
2761;BME280;15420;48.636;9.798;2023-02-23T00:36:29;96332.84;;;8.93;93.05
2761;BME280;15420;48.636;9.798;2023-02-23T00:38:58;96331.97;;;8.93;92.29
2761;BME280;15420;48.636;9.798;2023-02-23T00:41:28;96329.38;;;8.91;91.98
2761;BME280;15420;48.636;9.798;2023-02-23T00:43:56;96335.38;;;8.92;92.43
2761;BME280;15420;48.636;9.798;2023-02-23T00:46:24;96331.94;;;8.91;93.36
2761;BME280;15420;48.636;9.798;2023-02-23T00:48:53;96330.22;;;8.92;92.54
2761;BME280;15420;48.636;9.798;2023-02-23T00:51:24;96331.94;;;8.91;92.43
2761;BME280;15420;48.636;9.798;2023-02-23T00:53:58;96331.06;;;8.91;93.60
2761;BME280;15420;48.636;9.798;2023-02-23T00:56:25;96328.50;;;8.91;93.20
2761;BME280;15420;48.636;9.798;2023-02-23T00:58:52;96328.53;;;8.92;93.58
2761;BME280;15420;48.636;9.798;2023-02-23T01:01:18;96321.66;;;8.91;92.54
2761;BME280;15420;48.636;9.798;2023-02-23T01:03:45;96328.50;;;8.91;92.77
2761;BME280;15420;48.636;9.798;2023-02-23T01:06:15;96328.50;;;8.91;93.21
2761;BME280;15420;48.636;9.798;2023-02-23T01:08:51;96329.38;;;8.91;93.56
2761;BME280;15420;48.636;9.798;2023-02-23T01:11:23;96326.75;;;8.88;93.24
2761;BME280;15420;48.636;9.798;2023-02-23T01:13:52;96331.88;;;8.88;94.03
2761;BME280;15420;48.636;9.798;2023-02-23T01:16:26;96330.13;;;8.87;93.44
2761;BME280;15420;48.636;9.798;2023-02-23T01:18:57;96330.13;;;8.87;93.47
2761;BME280;15420;48.636;9.798;2023-02-23T01:21:29;96334.44;;;8.88;94.98
2761;BME280;15420;48.636;9.798;2023-02-23T01:23:58;96328.38;;;8.84;95.02
2761;BME280;15420;48.636;9.798;2023-02-23T01:26:30;96330.13;;;8.85;93.91
2761;BME280;15420;48.636;9.798;2023-02-23T01:29:02;96330.13;;;8.85;95.34
2761;BME280;15420;48.636;9.798;2023-02-23T01:31:29;96323.28;;;8.86;94.00
2761;BME280;15420;48.636;9.798;2023-02-23T01:33:58;96320.69;;;8.86;94.99
2761;BME280;15420;48.636;9.798;2023-02-23T01:36:25;96319.81;;;8.84;95.20
2761;BME280;15420;48.636;9.798;2023-02-23T01:38:54;96317.22;;;8.84;94.88
2761;BME280;15420;48.636;9.798;2023-02-23T01:41:26;96318.94;;;8.83;94.82
2761;BME280;15420;48.636;9.798;2023-02-23T01:46:25;96312.03;;;8.81;94.63
2761;BME280;15420;48.636;9.798;2023-02-23T01:48:55;96317.19;;;8.81;93.76
2761;BME280;15420;48.636;9.798;2023-02-23T01:51:27;96318.03;;;8.81;94.08
2761;BME280;15420;48.636;9.798;2023-02-23T01:54:14;96315.47;;;8.81;94.14
2761;BME280;15420;48.636;9.798;2023-02-23T01:56:44;96317.19;;;8.81;95.12
2761;BME280;15420;48.636;9.798;2023-02-23T01:59:16;96318.03;;;8.81;94.30
2761;BME280;15420;48.636;9.798;2023-02-23T02:01:45;96313.72;;;8.79;95.15
2761;BME280;15420;48.636;9.798;2023-02-23T02:04:13;96311.97;;;8.78;94.20
2761;BME280;15420;48.636;9.798;2023-02-23T02:06:43;96311.09;;;8.77;95.05
2761;BME280;15420;48.636;9.798;2023-02-23T02:09:16;96310.25;;;8.77;94.87
2761;BME280;15420;48.636;9.798;2023-02-23T02:11:46;96312.84;;;8.78;94.07
2761;BME280;15420;48.636;9.798;2023-02-23T02:31:48;96299.94;;;8.75;96.52
2761;BME280;15420;48.636;9.798;2023-02-23T02:39:46;96294.84;;;8.77;96.23
2761;BME280;15420;48.636;9.798;2023-02-23T02:47:38;96299.19;;;8.81;96.99
2761;BME280;15420;48.636;9.798;2023-02-23T02:52:56;96292.34;;;8.81;96.34
2761;BME280;15420;48.636;9.798;2023-02-23T02:55:28;96292.34;;;8.81;96.47
2761;BME280;15420;48.636;9.798;2023-02-23T02:58:00;96293.19;;;8.80;95.82
2761;BME280;15420;48.636;9.798;2023-02-23T03:00:47;96289.81;;;8.83;96.76
2761;BME280;15420;48.636;9.798;2023-02-23T03:06:37;96289.75;;;8.80;96.72
2761;BME280;15420;48.636;9.798;2023-02-23T03:12:32;96294.03;;;8.79;96.34
2761;BME280;15420;48.636;9.798;2023-02-23T03:33:35;96294.00;;;8.78;97.42
2761;BME280;15420;48.636;9.798;2023-02-23T03:36:24;96288.84;;;8.78;97.56
2761;BME280;15420;48.636;9.798;2023-02-23T03:42:04;96284.59;;;8.78;98.16
2761;BME280;15420;48.636;9.798;2023-02-23T03:44:52;96285.47;;;8.79;98.19
2761;BME280;15420;48.636;9.798;2023-02-23T03:47:43;96281.16;;;8.78;98.20
2761;BME280;15420;48.636;9.798;2023-02-23T03:50:40;96289.75;;;8.80;98.08
2761;BME280;15420;48.636;9.798;2023-02-23T03:53:40;96288.84;;;8.78;98.36
2761;BME280;15420;48.636;9.798;2023-02-23T03:56:34;96287.06;;;8.74;99.28
2761;BME280;15420;48.636;9.798;2023-02-23T03:59:25;96286.22;;;8.75;99.25
2761;BME280;15420;48.636;9.798;2023-02-23T04:02:14;96285.38;;;8.74;98.98
2761;BME280;15420;48.636;9.798;2023-02-23T04:05:02;96285.38;;;8.74;99.67
2761;BME280;15420;48.636;9.798;2023-02-23T04:07:51;96285.38;;;8.74;99.59
2761;BME280;15420;48.636;9.798;2023-02-23T04:10:52;96289.66;;;8.75;100.00
2761;BME280;15420;48.636;9.798;2023-02-23T04:13:39;96299.09;;;8.76;100.00
2761;BME280;15420;48.636;9.798;2023-02-23T04:16:08;96294.00;;;8.78;100.00
2761;BME280;15420;48.636;9.798;2023-02-23T04:18:37;96296.56;;;8.78;100.00
2761;BME280;15420;48.636;9.798;2023-02-23T04:21:05;96294.03;;;8.79;100.00
2761;BME280;15420;48.636;9.798;2023-02-23T04:23:34;96292.31;;;8.80;100.00
2761;BME280;15420;48.636;9.798;2023-02-23T04:26:03;96290.63;;;8.80;100.00
2761;BME280;15420;48.636;9.798;2023-02-23T04:28:34;96299.22;;;8.82;100.00
2761;BME280;15420;48.636;9.798;2023-02-23T04:31:00;96297.50;;;8.81;100.00
2761;BME280;15420;48.636;9.798;2023-02-23T04:33:27;96296.69;;;8.84;100.00
2761;BME280;15420;48.636;9.798;2023-02-23T04:35:53;96290.66;;;8.82;100.00
2761;BME280;15420;48.636;9.798;2023-02-23T04:38:20;96288.13;;;8.83;100.00
2761;BME280;15420;48.636;9.798;2023-02-23T04:40:46;96291.56;;;8.84;100.00
2761;BME280;15420;48.636;9.798;2023-02-23T04:43:13;96294.16;;;8.85;100.00
2761;BME280;15420;48.636;9.798;2023-02-23T04:45:39;96297.56;;;8.84;100.00
2761;BME280;15420;48.636;9.798;2023-02-23T04:48:06;96297.59;;;8.86;100.00
2761;BME280;15420;48.636;9.798;2023-02-23T04:50:34;96299.28;;;8.85;100.00
2761;BME280;15420;48.636;9.798;2023-02-23T04:53:00;96295.00;;;8.86;100.00
2761;BME280;15420;48.636;9.798;2023-02-23T04:55:26;96300.16;;;8.86;100.00
2761;BME280;15420;48.636;9.798;2023-02-23T04:57:57;96298.44;;;8.87;100.00
2761;BME280;15420;48.636;9.798;2023-02-23T05:00:24;96293.31;;;8.87;100.00
2761;BME280;15420;48.636;9.798;2023-02-23T05:02:51;96291.59;;;8.87;100.00
2761;BME280;15420;48.636;9.798;2023-02-23T05:05:17;96295.03;;;8.88;100.00
2761;BME280;15420;48.636;9.798;2023-02-23T05:07:43;96288.19;;;8.88;100.00
2761;BME280;15420;48.636;9.798;2023-02-23T05:10:10;96290.78;;;8.88;100.00
2761;BME280;15420;48.636;9.798;2023-02-23T05:12:39;96291.66;;;8.90;100.00
2761;BME280;15420;48.636;9.798;2023-02-23T05:15:05;96290.84;;;8.91;100.00
2761;BME280;15420;48.636;9.798;2023-02-23T05:17:31;96289.13;;;8.92;100.00
2761;BME280;15420;48.636;9.798;2023-02-23T05:20:02;96284.00;;;8.92;100.00
2761;BME280;15420;48.636;9.798;2023-02-23T05:22:31;96284.88;;;8.94;100.00
2761;BME280;15420;48.636;9.798;2023-02-23T05:24:59;96287.47;;;8.94;100.00
2761;BME280;15420;48.636;9.798;2023-02-23T05:27:26;96289.19;;;8.95;100.00
2761;BME280;15420;48.636;9.798;2023-02-23T05:29:55;96281.50;;;8.96;100.00
2761;BME280;15420;48.636;9.798;2023-02-23T05:32:23;96290.09;;;8.97;100.00
2761;BME280;15420;48.636;9.798;2023-02-23T05:34:52;96290.06;;;8.95;100.00
2761;BME280;15420;48.636;9.798;2023-02-23T05:37:18;96284.09;;;8.98;100.00
2761;BME280;15420;48.636;9.798;2023-02-23T05:39:46;96286.69;;;8.98;100.00
2761;BME280;15420;48.636;9.798;2023-02-23T05:42:12;96286.72;;;8.99;100.00
2761;BME280;15420;48.636;9.798;2023-02-23T05:44:38;96289.28;;;8.99;100.00
2761;BME280;15420;48.636;9.798;2023-02-23T05:47:04;96290.16;;;9.01;100.00
2761;BME280;15420;48.636;9.798;2023-02-23T05:49:35;96292.72;;;9.00;100.00
2761;BME280;15420;48.636;9.798;2023-02-23T05:52:01;96292.72;;;9.00;100.00
2761;BME280;15420;48.636;9.798;2023-02-23T05:54:27;96291.91;;;9.02;100.00
2761;BME280;15420;48.636;9.798;2023-02-23T05:56:56;96292.75;;;9.01;100.00
2761;BME280;15420;48.636;9.798;2023-02-23T05:59:22;96296.16;;;9.02;100.00
2761;BME280;15420;48.636;9.798;2023-02-23T06:01:53;96297.09;;;9.05;100.00
2761;BME280;15420;48.636;9.798;2023-02-23T06:04:21;96301.38;;;9.05;100.00
2761;BME280;15420;48.636;9.798;2023-02-23T06:06:49;96305.66;;;9.06;100.00
2761;BME280;15420;48.636;9.798;2023-02-23T06:09:15;96303.13;;;9.07;100.00
2761;BME280;15420;48.636;9.798;2023-02-23T06:11:44;96298.84;;;9.06;100.00
2761;BME280;15420;48.636;9.798;2023-02-23T06:14:10;96298.88;;;9.09;100.00
2761;BME280;15420;48.636;9.798;2023-02-23T06:16:43;96304.91;;;9.10;100.00
2761;BME280;15420;48.636;9.798;2023-02-23T06:19:10;96310.91;;;9.10;100.00
2761;BME280;15420;48.636;9.798;2023-02-23T06:21:36;96307.50;;;9.11;100.00
2761;BME280;15420;48.636;9.798;2023-02-23T06:24:05;96314.38;;;9.12;100.00
2761;BME280;15420;48.636;9.798;2023-02-23T06:26:33;96310.97;;;9.13;100.00
2761;BME280;15420;48.636;9.798;2023-02-23T06:29:00;96311.81;;;9.14;100.00
2761;BME280;15420;48.636;9.798;2023-02-23T06:31:26;96317.84;;;9.14;100.00
2761;BME280;15420;48.636;9.798;2023-02-23T06:33:55;96321.28;;;9.16;100.00
2761;BME280;15420;48.636;9.798;2023-02-23T06:36:21;96324.75;;;9.18;100.00
2761;BME280;15420;48.636;9.798;2023-02-23T06:38:47;96326.50;;;9.20;100.00
2761;BME280;15420;48.636;9.798;2023-02-23T06:41:16;96327.41;;;9.23;100.00
2761;BME280;15420;48.636;9.798;2023-02-23T06:43:42;96323.13;;;9.24;100.00
2761;BME280;15420;48.636;9.798;2023-02-23T06:46:09;96334.28;;;9.24;100.00
2761;BME280;15420;48.636;9.798;2023-02-23T06:48:38;96338.63;;;9.27;100.00
2761;BME280;15420;48.636;9.798;2023-02-23T06:51:06;96336.06;;;9.27;100.00
2761;BME280;15420;48.636;9.798;2023-02-23T06:53:33;96330.06;;;9.28;100.00
2761;BME280;15420;48.636;9.798;2023-02-23T06:55:59;96338.69;;;9.30;100.00
2761;BME280;15420;48.636;9.798;2023-02-23T06:58:31;96337.00;;;9.32;100.00
2761;BME280;15420;48.636;9.798;2023-02-23T07:00:57;96344.72;;;9.32;100.00
2761;BME280;15420;48.636;9.798;2023-02-23T07:03:24;96340.47;;;9.34;100.00
2761;BME280;15420;48.636;9.798;2023-02-23T07:05:52;96339.63;;;9.36;100.00
2761;BME280;15420;48.636;9.798;2023-02-23T07:08:21;96335.34;;;9.37;100.00
2761;BME280;15420;48.636;9.798;2023-02-23T07:10:47;96342.22;;;9.38;100.00
2761;BME280;15420;48.636;9.798;2023-02-23T07:13:13;96337.09;;;9.38;100.00
2761;BME280;15420;48.636;9.798;2023-02-23T07:15:41;96342.25;;;9.39;100.00
2761;BME280;15420;48.636;9.798;2023-02-23T07:18:12;96340.56;;;9.41;100.00
2761;BME280;15420;48.636;9.798;2023-02-23T07:20:38;96339.72;;;9.42;100.00
2761;BME280;15420;48.636;9.798;2023-02-23T07:23:08;96343.19;;;9.43;100.00
2761;BME280;15420;48.636;9.798;2023-02-23T07:25:36;96344.88;;;9.42;100.00
2761;BME280;15420;48.636;9.798;2023-02-23T07:28:03;96344.06;;;9.45;100.00
2761;BME280;15420;48.636;9.798;2023-02-23T07:30:31;96350.94;;;9.46;100.00
2761;BME280;15420;48.636;9.798;2023-02-23T07:32:57;96345.81;;;9.47;100.00
2761;BME280;15420;48.636;9.798;2023-02-23T07:35:23;96348.44;;;9.49;100.00
2761;BME280;15420;48.636;9.798;2023-02-23T07:37:54;96351.03;;;9.50;100.00
2761;BME280;15420;48.636;9.798;2023-02-23T07:40:24;96351.06;;;9.52;100.00
2761;BME280;15420;48.636;9.798;2023-02-23T07:42:51;96354.53;;;9.54;100.00
2761;BME280;15420;48.636;9.798;2023-02-23T07:45:19;96348.56;;;9.57;100.00
2761;BME280;15420;48.636;9.798;2023-02-23T07:47:46;96355.47;;;9.59;100.00
2761;BME280;15420;48.636;9.798;2023-02-23T07:50:14;96351.25;;;9.63;100.00
2761;BME280;15420;48.636;9.798;2023-02-23T07:52:41;96352.97;;;9.64;100.00
2761;BME280;15420;48.636;9.798;2023-02-23T07:55:11;96353.88;;;9.66;100.00
2761;BME280;15420;48.636;9.798;2023-02-23T07:57:40;96359.91;;;9.68;100.00
2761;BME280;15420;48.636;9.798;2023-02-23T08:00:06;96359.94;;;9.69;100.00
2761;BME280;15420;48.636;9.798;2023-02-23T08:02:33;96360.00;;;9.72;100.00
2761;BME280;15420;48.636;9.798;2023-02-23T08:05:02;96363.44;;;9.74;100.00
2761;BME280;15420;48.636;9.798;2023-02-23T08:07:32;96361.78;;;9.78;100.00
2761;BME280;15420;48.636;9.798;2023-02-23T08:10:00;96359.22;;;9.78;100.00
2761;BME280;15420;48.636;9.798;2023-02-23T08:12:26;96361.88;;;9.82;100.00
2761;BME280;15420;48.636;9.798;2023-02-23T08:14:52;96360.19;;;9.84;100.00
2761;BME280;15420;48.636;9.798;2023-02-23T08:17:21;96363.66;;;9.87;100.00
2761;BME280;15420;48.636;9.798;2023-02-23T08:19:47;96365.41;;;9.89;100.00
2761;BME280;15420;48.636;9.798;2023-02-23T08:22:14;96364.59;;;9.92;100.00
2761;BME280;15420;48.636;9.798;2023-02-23T08:24:42;96365.50;;;9.94;100.00
2761;BME280;15420;48.636;9.798;2023-02-23T08:27:08;96363.81;;;9.96;100.00
2761;BME280;15420;48.636;9.798;2023-02-23T08:29:35;96369.88;;;9.99;100.00
2761;BME280;15420;48.636;9.798;2023-02-23T08:32:06;96365.66;;;10.03;100.00
2761;BME280;15420;48.636;9.798;2023-02-23T08:34:35;96373.38;;;10.04;100.00
2761;BME280;15420;48.636;9.798;2023-02-23T08:37:02;96374.31;;;10.08;100.00
2761;BME280;15420;48.636;9.798;2023-02-23T08:39:30;96376.09;;;10.12;100.00
2761;BME280;15420;48.636;9.798;2023-02-23T08:41:57;96370.16;;;10.16;100.00
2761;BME280;15420;48.636;9.798;2023-02-23T08:44:25;96372.81;;;10.21;100.00
2761;BME280;15420;48.636;9.798;2023-02-23T08:46:52;96382.31;;;10.23;100.00
2761;BME280;15420;48.636;9.798;2023-02-23T08:49:18;96370.34;;;10.27;100.00
2761;BME280;15420;48.636;9.798;2023-02-23T08:51:45;96375.56;;;10.31;100.00
2761;BME280;15420;48.636;9.798;2023-02-23T08:54:12;96372.19;;;10.35;100.00
2761;BME280;15420;48.636;9.798;2023-02-23T08:56:43;96373.09;;;10.39;100.00
2761;BME280;15420;48.636;9.798;2023-02-23T08:59:11;96374.84;;;10.41;100.00
2761;BME280;15420;48.636;9.798;2023-02-23T09:01:37;96373.16;;;10.45;100.00
2761;BME280;15420;48.636;9.798;2023-02-23T09:04:04;96376.66;;;10.48;100.00
2761;BME280;15420;48.636;9.798;2023-02-23T09:06:31;96377.56;;;10.52;100.00
2761;BME280;15420;48.636;9.798;2023-02-23T09:08:57;96380.19;;;10.55;100.00
2761;BME280;15420;48.636;9.798;2023-02-23T09:11:26;96378.50;;;10.59;100.00
2761;BME280;15420;48.636;9.798;2023-02-23T09:13:52;96381.13;;;10.62;100.00
2761;BME280;15420;48.636;9.798;2023-02-23T09:16:21;96379.47;;;10.65;100.00
2761;BME280;15420;48.636;9.798;2023-02-23T09:18:47;96381.25;;;10.69;100.00
2761;BME280;15420;48.636;9.798;2023-02-23T09:21:15;96386.47;;;10.74;100.00
2761;BME280;15420;48.636;9.798;2023-02-23T09:23:44;96377.94;;;10.78;100.00
2761;BME280;15420;48.636;9.798;2023-02-23T09:26:14;96383.97;;;10.80;100.00
2761;BME280;15420;48.636;9.798;2023-02-23T09:28:43;96381.44;;;10.85;100.00
2761;BME280;15420;48.636;9.798;2023-02-23T09:31:15;96384.09;;;10.89;100.00
2761;BME280;15420;48.636;9.798;2023-02-23T09:33:42;96386.72;;;10.92;100.00
2761;BME280;15420;48.636;9.798;2023-02-23T09:36:19;96382.47;;;10.97;100.00
2761;BME280;15420;48.636;9.798;2023-02-23T09:38:48;96389.41;;;11.01;100.00
2761;BME280;15420;48.636;9.798;2023-02-23T09:41:45;96382.63;;;11.09;100.00
2761;BME280;15420;48.636;9.798;2023-02-23T09:47:24;96385.31;;;11.17;100.00
2761;BME280;15420;48.636;9.798;2023-02-23T09:49:57;96385.38;;;11.22;100.00
2761;BME280;15420;48.636;9.798;2023-02-23T09:52:30;96382.84;;;11.28;100.00
2761;BME280;15420;48.636;9.798;2023-02-23T09:55:03;96379.50;;;11.35;100.00
2761;BME280;15420;48.636;9.798;2023-02-23T09:57:41;96389.03;;;11.42;100.00
2761;BME280;15420;48.636;9.798;2023-02-23T10:03:02;96375.34;;;11.52;100.00
2761;BME280;15420;48.636;9.798;2023-02-23T10:05:37;96387.44;;;11.56;100.00
2761;BME280;15420;48.636;9.798;2023-02-23T10:08:18;96378.91;;;11.63;100.00
2761;BME280;15420;48.636;9.798;2023-02-23T10:19:19;96387.75;;;11.84;100.00
2761;BME280;15420;48.636;9.798;2023-02-23T10:21:55;96384.34;;;11.88;100.00
2761;BME280;15420;48.636;9.798;2023-02-23T10:24:53;96379.25;;;11.94;100.00
2761;BME280;15420;48.636;9.798;2023-02-23T10:27:36;96378.38;;;11.95;100.00
2761;BME280;15420;48.636;9.798;2023-02-23T10:30:11;96386.19;;;11.99;100.00
2761;BME280;15420;48.636;9.798;2023-02-23T10:35:21;96384.53;;;12.07;100.00
2761;BME280;15420;48.636;9.798;2023-02-23T10:37:50;96381.97;;;12.12;100.00
2761;BME280;15420;48.636;9.798;2023-02-23T10:40:26;96378.59;;;12.19;100.00
2761;BME280;15420;48.636;9.798;2023-02-23T10:42:54;96382.06;;;12.21;100.00
2761;BME280;15420;48.636;9.798;2023-02-23T10:45:24;96377.81;;;12.28;100.00
2761;BME280;15420;48.636;9.798;2023-02-23T10:47:55;96374.41;;;12.33;100.00
2761;BME280;15420;48.636;9.798;2023-02-23T10:50:23;96378.75;;;12.37;100.00
2761;BME280;15420;48.636;9.798;2023-02-23T10:52:57;96379.63;;;12.42;100.00
2761;BME280;15420;48.636;9.798;2023-02-23T10:55:31;96375.34;;;12.49;100.00
2761;BME280;15420;48.636;9.798;2023-02-23T11:00:36;96369.38;;;12.56;100.00
2761;BME280;15420;48.636;9.798;2023-02-23T11:03:27;96365.97;;;12.63;100.00
2761;BME280;15420;48.636;9.798;2023-02-23T11:05:54;96362.50;;;12.61;100.00
2761;BME280;15420;48.636;9.798;2023-02-23T11:08:27;96365.13;;;12.69;100.00
2761;BME280;15420;48.636;9.798;2023-02-23T11:13:48;96376.41;;;12.82;100.00
2761;BME280;15420;48.636;9.798;2023-02-23T11:16:18;96371.25;;;12.82;100.00
2761;BME280;15420;48.636;9.798;2023-02-23T11:19:01;96371.28;;;12.91;100.00
2761;BME280;15420;48.636;9.798;2023-02-23T11:21:30;96366.13;;;12.91;100.00
2761;BME280;15420;48.636;9.798;2023-02-23T11:24:21;96365.31;;;13.01;100.00
2761;BME280;15420;48.636;9.798;2023-02-23T11:26:54;96373.06;;;13.02;100.00
2761;BME280;15420;48.636;9.798;2023-02-23T11:29:43;96366.22;;;13.09;100.00
2761;BME280;15420;48.636;9.798;2023-02-23T11:32:12;96367.09;;;13.13;99.79
2761;BME280;15420;48.636;9.798;2023-02-23T11:34:40;96361.09;;;13.18;100.00
2761;BME280;15420;48.636;9.798;2023-02-23T11:39:55;96360.31;;;13.34;98.21
2761;BME280;15420;48.636;9.798;2023-02-23T11:42:24;96354.25;;;13.35;98.77
2761;BME280;15420;48.636;9.798;2023-02-23T11:45:20;96350.84;;;13.43;96.86
2761;BME280;15420;48.636;9.798;2023-02-23T11:47:51;96347.41;;;13.47;97.61
2761;BME280;15420;48.636;9.798;2023-02-23T11:50:32;96348.25;;;13.55;95.86
2761;BME280;15420;48.636;9.798;2023-02-23T11:55:54;96341.34;;;13.63;95.63
2761;BME280;15420;48.636;9.798;2023-02-23T12:01:08;96342.25;;;13.72;94.17
2761;BME280;15420;48.636;9.798;2023-02-23T12:03:46;96339.66;;;13.79;93.82
2761;BME280;15420;48.636;9.798;2023-02-23T12:06:37;96337.94;;;13.84;93.10
2761;BME280;15420;48.636;9.798;2023-02-23T12:12:04;96328.44;;;13.89;93.36
2761;BME280;15420;48.636;9.798;2023-02-23T12:17:39;96329.31;;;14.00;91.93
2761;BME280;15420;48.636;9.798;2023-02-23T12:20:19;96330.19;;;14.00;91.34
2761;BME280;15420;48.636;9.798;2023-02-23T12:23:25;96322.41;;;14.03;90.56
2761;BME280;15420;48.636;9.798;2023-02-23T12:26:02;96326.72;;;14.06;91.30
2761;BME280;15420;48.636;9.798;2023-02-23T12:28:39;96320.69;;;14.12;90.27
2761;BME280;15420;48.636;9.798;2023-02-23T12:34:13;96315.50;;;14.16;90.02
2761;BME280;15420;48.636;9.798;2023-02-23T12:36:45;96318.09;;;14.18;89.74
2761;BME280;15420;48.636;9.798;2023-02-23T12:39:37;96308.59;;;14.20;90.13
2761;BME280;15420;48.636;9.798;2023-02-23T12:45:05;96302.53;;;14.31;88.67
2761;BME280;15420;48.636;9.798;2023-02-23T12:53:19;96306.84;;;14.43;87.27
2761;BME280;15420;48.636;9.798;2023-02-23T13:04:23;96288.69;;;14.52;86.71
2761;BME280;15420;48.636;9.798;2023-02-23T13:06:55;96295.53;;;14.62;86.13
2761;BME280;15420;48.636;9.798;2023-02-23T13:12:32;96291.16;;;14.83;84.11
2761;BME280;15420;48.636;9.798;2023-02-23T13:18:00;96289.38;;;15.00;83.17
2761;BME280;15420;48.636;9.798;2023-02-23T13:20:34;96291.06;;;15.05;82.57
2761;BME280;15420;48.636;9.798;2023-02-23T13:23:35;96287.53;;;15.19;82.73
2761;BME280;15420;48.636;9.798;2023-02-23T13:31:03;96289.13;;;15.44;80.99
2761;BME280;15420;48.636;9.798;2023-02-23T13:33:30;96283.03;;;15.51;81.32
2761;BME280;15420;48.636;9.798;2023-02-23T13:36:01;96283.88;;;15.59;80.29
2761;BME280;15420;48.636;9.798;2023-02-23T13:38:39;96283.78;;;15.67;79.88
2761;BME280;15420;48.636;9.798;2023-02-23T13:41:23;96284.59;;;15.74;79.95
2761;BME280;15420;48.636;9.798;2023-02-23T13:44:23;96278.53;;;15.76;78.90
2761;BME280;15420;48.636;9.798;2023-02-23T13:46:52;96279.38;;;15.80;79.29
2761;BME280;15420;48.636;9.798;2023-02-23T13:49:37;96278.44;;;15.88;77.34
2761;BME280;15420;48.636;9.798;2023-02-23T13:52:25;96270.59;;;15.93;78.00
2761;BME280;15420;48.636;9.798;2023-02-23T13:54:58;96274.03;;;15.98;76.90
2761;BME280;15420;48.636;9.798;2023-02-23T13:57:30;96269.63;;;16.06;76.56
2761;BME280;15420;48.636;9.798;2023-02-23T13:59:57;96267.81;;;16.14;77.06
2761;BME280;15420;48.636;9.798;2023-02-23T14:02:36;96266.00;;;16.24;75.93
2761;BME280;15420;48.636;9.798;2023-02-23T14:05:24;96267.69;;;16.29;75.33
2761;BME280;15420;48.636;9.798;2023-02-23T14:07:53;96261.63;;;16.27;75.94
2761;BME280;15420;48.636;9.798;2023-02-23T14:10:27;96260.75;;;16.28;73.93
2761;BME280;15420;48.636;9.798;2023-02-23T14:13:23;96265.06;;;16.31;73.41
2761;BME280;15420;48.636;9.798;2023-02-23T14:16:17;96270.28;;;16.29;73.60
2761;BME280;15420;48.636;9.798;2023-02-23T14:21:50;96266.00;;;16.22;72.65
2761;BME280;15420;48.636;9.798;2023-02-23T14:24:25;96267.81;;;16.14;73.58
2761;BME280;15420;48.636;9.798;2023-02-23T14:38:00;96260.06;;;16.08;71.98
2761;BME280;15420;48.636;9.798;2023-02-23T14:40:33;96262.69;;;16.08;71.02
2761;BME280;15420;48.636;9.798;2023-02-23T14:43:18;96261.84;;;16.03;71.44
2761;BME280;15420;48.636;9.798;2023-02-23T14:45:54;96253.19;;;16.04;71.27
2761;BME280;15420;48.636;9.798;2023-02-23T14:48:22;96252.38;;;15.99;71.46
2761;BME280;15420;48.636;9.798;2023-02-23T14:51:07;96252.38;;;15.96;70.63
2761;BME280;15420;48.636;9.798;2023-02-23T14:53:37;96251.56;;;15.92;70.80
2761;BME280;15420;48.636;9.798;2023-02-23T14:56:15;96250.69;;;15.90;70.69
2761;BME280;15420;48.636;9.798;2023-02-23T14:58:52;96248.13;;;15.87;71.80
2761;BME280;15420;48.636;9.798;2023-02-23T15:01:36;96248.09;;;15.90;72.05
2761;BME280;15420;48.636;9.798;2023-02-23T15:04:10;96246.44;;;15.82;71.36
2761;BME280;15420;48.636;9.798;2023-02-23T15:06:42;96247.31;;;15.82;71.69
2761;BME280;15420;48.636;9.798;2023-02-23T15:09:26;96248.19;;;15.80;71.47
2761;BME280;15420;48.636;9.798;2023-02-23T15:11:57;96252.50;;;15.81;71.85
2761;BME280;15420;48.636;9.798;2023-02-23T15:14:24;96259.47;;;15.77;70.60
2761;BME280;15420;48.636;9.798;2023-02-23T15:16:54;96256.00;;;15.78;71.51
2761;BME280;15420;48.636;9.798;2023-02-23T15:19:21;96254.28;;;15.77;70.73
2761;BME280;15420;48.636;9.798;2023-02-23T15:21:57;96249.97;;;15.73;71.42
2761;BME280;15420;48.636;9.798;2023-02-23T15:24:37;96256.91;;;15.73;70.52
2761;BME280;15420;48.636;9.798;2023-02-23T15:27:20;96252.59;;;15.72;71.32
2761;BME280;15420;48.636;9.798;2023-02-23T15:29:48;96255.22;;;15.65;71.50
2761;BME280;15420;48.636;9.798;2023-02-23T15:32:19;96252.63;;;15.65;70.72
2761;BME280;15420;48.636;9.798;2023-02-23T15:34:45;96257.84;;;15.64;71.18
2761;BME280;15420;48.636;9.798;2023-02-23T15:39:53;96258.69;;;15.66;71.41
2761;BME280;15420;48.636;9.798;2023-02-23T15:42:34;96261.28;;;15.66;71.66
2761;BME280;15420;48.636;9.798;2023-02-23T15:45:10;96264.78;;;15.63;71.33
2761;BME280;15420;48.636;9.798;2023-02-23T15:47:38;96268.28;;;15.59;72.53
2761;BME280;15420;48.636;9.798;2023-02-23T15:50:17;96264.78;;;15.60;71.24
2761;BME280;15420;48.636;9.798;2023-02-23T15:52:50;96275.22;;;15.57;71.60
2761;BME280;15420;48.636;9.798;2023-02-23T15:55:32;96269.16;;;15.58;71.78
2761;BME280;15420;48.636;9.798;2023-02-23T15:58:09;96268.31;;;15.52;72.52
2761;BME280;15420;48.636;9.798;2023-02-23T16:00:42;96271.78;;;15.51;72.25
2761;BME280;15420;48.636;9.798;2023-02-23T16:03:28;96270.06;;;15.50;72.43
2761;BME280;15420;48.636;9.798;2023-02-23T16:09:13;96272.72;;;15.42;73.61